Time;durP1;ratioP1;P1;durP2;ratioP2;P2;SDS_P1;SDS_P2;PMS_P1;PMS_P2;Temp;Humidity;BMP_temperature;BMP_pressure;BME280_temperature;BME280_humidity;BME280_pressure;Samples;Min_cycle;Max_cycle;Signal;HPM_P1;HPM_P2
2021/12/22 00:02:14;;;;;;;;;;;;;;;;;;5082809;28;20028;-71
2021/12/22 00:04:47;;;;;;;;;;;;;;;;;;5083504;28;19935;-71
2021/12/22 00:07:16;;;;;;;;;;;;;;;;;;5082157;28;19939;-71
2021/12/22 00:09:46;;;;;;;;;;;;;;;;;;5080952;28;19978;-70
2021/12/22 00:12:14;;;;;;;;;;;;;;;;;;5082298;28;19928;-71
2021/12/22 00:14:44;;;;;;;;;;;;;;;;;;5083476;28;19944;-71
2021/12/22 00:17:13;;;;;;;;;;;;;;;;;;5083654;28;20388;-71
2021/12/22 00:19:42;;;;;;;;;;;;;;;;;;5085991;28;19935;-71
2021/12/22 00:22:10;;;;;;;;;;;;;;;;;;5080426;28;19932;-71
2021/12/22 00:24:40;;;;;;;;;;;;;;;;;;5084768;28;19924;-71
2021/12/22 00:27:13;;;;;;;;;;;;;;;;;;5088271;28;19924;-71
2021/12/22 00:29:48;;;;;;;;;;;;;;;;;;5086124;28;20491;-71
2021/12/22 00:32:17;;;;;;;;;;;;;;;;;;5081774;28;19934;-70
2021/12/22 00:34:52;;;;;;;;;;;;;;;;;;5087462;28;19924;-71
2021/12/22 00:37:22;;;;;;;;;;;;;;;;;;5088210;28;19928;-71
2021/12/22 00:39:51;;;;;;;;;;;;;;;;;;5083671;28;19936;-71
2021/12/22 00:42:20;;;;;;;;;;;;;;;;;;5086973;28;19969;-71
2021/12/22 00:44:50;;;;;;;;;;;;;;;;;;5066329;28;19931;-70
2021/12/22 00:47:20;;;;;;;;;;;;;;;;;;5087811;28;19932;-71
2021/12/22 00:49:52;;;;;;;;;;;;;;;;;;5066911;28;19927;-71
2021/12/22 00:52:22;;;;;;;;;;;;;;;;;;5087346;28;20375;-71
2021/12/22 00:54:53;;;;;;;;;;;;;;;;;;5086497;28;19924;-71
2021/12/22 00:57:22;;;;;;;;;;;;;;;;;;5080769;28;19972;-70
2021/12/22 00:59:51;;;;;;;;;;;;;;;;;;5086042;28;19988;-71
2021/12/22 01:02:26;;;;;;;;;;;;;;;;;;5088151;28;19931;-71
2021/12/22 01:04:55;;;;;;;;;;;;;;;;;;5083049;28;20354;-71
2021/12/22 01:07:23;;;;;;;;;;;;;;;;;;5098101;28;20359;-71
2021/12/22 01:10:09;;;;;;;;;;;;;;;;;;5081422;28;20467;-70
2021/12/22 01:12:40;;;;;;;;;;;;;;;;;;5085037;28;19946;-70
2021/12/22 01:15:08;;;;;;;;;;;;;;;;;;5082928;28;19932;-70
2021/12/22 01:17:48;;;;;;;;;;;;;;;;;;5087291;28;19928;-70
2021/12/22 01:20:32;;;;;;;;;;;;;;;;;;5085185;28;20052;-70
2021/12/22 01:23:10;;;;;;;;;;;;;;;;;;5087005;28;21226;-70
2021/12/22 01:25:43;;;;;;;;;;;;;;;;;;5091114;28;20493;-70
2021/12/22 01:28:15;;;;;;;;;;;;;;;;;;5080291;28;19932;-70
2021/12/22 01:30:47;;;;;;;;;;;;;;;;;;5077719;28;19925;-70
2021/12/22 01:33:18;;;;;;;;;;;;;;;;;;5085074;28;20281;-70
2021/12/22 01:35:48;;;;;;;;;;;;;;;;;;5088638;28;19932;-71
2021/12/22 01:38:16;;;;;;;;;;;;;;;;;;5070716;28;19928;-70
2021/12/22 01:40:43;;;;;;;;;;;;;;;;;;5085146;28;19924;-71
2021/12/22 01:43:15;;;;;;;;;;;;;;;;;;5086451;28;20571;-70
2021/12/22 01:46:09;;;;;;;;;;;;;;;;;;5084955;28;19924;-71
2021/12/22 01:51:31;;;;;;;;;;;;;;;;;;5081645;28;19932;-70
2021/12/22 01:54:00;;;;;;;;;;;;;;;;;;5068669;28;20249;-70
2021/12/22 01:56:35;;;;;;;;;;;;;;;;;;5076572;28;19928;-71
2021/12/22 01:59:06;;;;;;;;;;;;;;;;;;5087054;28;20394;-71
2021/12/22 02:01:39;;;;;;;;;;;;;;;;;;5082277;28;20281;-71
2021/12/22 02:04:12;;;;;;;;;;;;;;;;;;5084403;28;19943;-71
2021/12/22 02:06:42;;;;;;;;;;;;;;;;;;5083968;28;19932;-71
2021/12/22 02:09:11;;;;;;;;;;;;;;;;;;5083577;28;19931;-70
2021/12/22 02:11:43;;;;;;;;;;;;;;;;;;5083021;28;20365;-70
2021/12/22 02:14:12;;;;;;;;;;;;;;;;;;5084620;28;19946;-71
2021/12/22 02:16:42;;;;;;;;;;;;;;;;;;5084699;28;19984;-71
2021/12/22 02:19:16;;;;;;;;;;;;;;;;;;5077599;28;19946;-71
2021/12/22 02:21:53;;;;;;;;;;;;;;;;;;5082279;28;19954;-70
2021/12/22 02:24:23;;;;;;;;;;;;;;;;;;5087979;28;19924;-70
2021/12/22 02:27:02;;;;;;;;;;;;;;;;;;5085098;28;19965;-70
2021/12/22 02:29:38;;;;;;;;;;;;;;;;;;5086812;28;19924;-70
2021/12/22 02:32:25;;;;;;;;;;;;;;;;;;5081775;28;19924;-70
2021/12/22 02:35:03;;;;;;;;;;;;;;;;;;5084146;28;19975;-71
2021/12/22 02:37:31;;;;;;;;;;;;;;;;;;5068451;28;20007;-70
2021/12/22 02:40:10;;;;;;;;;;;;;;;;;;5083546;28;19924;-71
2021/12/22 02:42:41;;;;;;;;;;;;;;;;;;5067906;28;19932;-70
2021/12/22 02:45:10;;;;;;;;;;;;;;;;;;5082269;28;19928;-70
2021/12/22 02:47:45;;;;;;;;;;;;;;;;;;5092623;28;20510;-70
2021/12/22 02:50:12;;;;;;;;;;;;;;;;;;5079568;28;19928;-71
2021/12/22 02:53:39;;;;;;;;;;;;;;;;;;5081795;28;20326;-70
2021/12/22 02:55:46;;;;;;;;;;;;;;;;;;5074176;28;19935;-70
2021/12/22 02:58:44;;;;;;;;;;;;;;;;;;5082982;28;19924;-70
2021/12/22 03:04:10;;;;;;;;;;;;;;;;;;5083104;28;20269;-70
2021/12/22 03:06:47;;;;;;;;;;;;;;;;;;5084394;28;19928;-70
2021/12/22 03:09:21;;;;;;;;;;;;;;;;;;5082386;28;19924;-70
2021/12/22 03:11:53;;;;;;;;;;;;;;;;;;5074643;28;19924;-70
2021/12/22 03:14:22;;;;;;;;;;;;;;;;;;5087500;28;19928;-70
2021/12/22 03:16:53;;;;;;;;;;;;;;;;;;5085305;28;19951;-71
2021/12/22 03:19:22;;;;;;;;;;;;;;;;;;5084047;28;19924;-70
2021/12/22 03:21:57;;;;;;;;;;;;;;;;;;5082697;28;19924;-70
2021/12/22 03:24:28;;;;;;;;;;;;;;;;;;5084659;28;19973;-70
2021/12/22 03:27:03;;;;;;;;;;;;;;;;;;5088766;28;19928;-70
2021/12/22 03:29:33;;;;;;;;;;;;;;;;;;5075731;28;19924;-70
2021/12/22 03:32:05;;;;;;;;;;;;;;;;;;5080652;28;20459;-70
2021/12/22 03:34:36;;;;;;;;;;;;;;;;;;5081636;28;19932;-70
2021/12/22 03:37:07;;;;;;;;;;;;;;;;;;5079973;28;19928;-70
2021/12/22 03:39:41;;;;;;;;;;;;;;;;;;5076133;28;20522;-71
2021/12/22 03:42:11;;;;;;;;;;;;;;;;;;5084744;28;19928;-70
2021/12/22 03:44:43;;;;;;;;;;;;;;;;;;5079569;28;19928;-70
2021/12/22 03:47:14;;;;;;;;;;;;;;;;;;5086526;28;19990;-70
2021/12/22 03:49:54;;;;;;;;;;;;;;;;;;5078644;28;19932;-70
2021/12/22 03:52:23;;;;;;;;;;;;;;;;;;5085543;28;19980;-70
2021/12/22 03:55:00;;;;;;;;;;;;;;;;;;5075662;28;19980;-70
2021/12/22 03:57:29;;;;;;;;;;;;;;;;;;5081855;28;19932;-70
2021/12/22 03:59:59;;;;;;;;;;;;;;;;;;5082752;28;19980;-70
2021/12/22 04:02:27;;;;;;;;;;;;;;;;;;5083479;28;19957;-71
2021/12/22 04:04:56;;;;;;;;;;;;;;;;;;5085372;28;19967;-70
2021/12/22 04:07:26;;;;;;;;;;;;;;;;;;5085404;28;19935;-70
2021/12/22 04:09:55;;;;;;;;;;;;;;;;;;5079865;28;20499;-70
2021/12/22 04:12:23;;;;;;;;;;;;;;;;;;5082049;28;19924;-70
2021/12/22 04:14:54;;;;;;;;;;;;;;;;;;5084609;28;19924;-70
2021/12/22 04:17:24;;;;;;;;;;;;;;;;;;5082883;28;19923;-70
2021/12/22 04:19:56;;;;;;;;;;;;;;;;;;5078733;28;19931;-71
2021/12/22 04:22:52;;;;;;;;;;;;;;;;;;5087435;28;20448;-71
2021/12/22 04:25:22;;;;;;;;;;;;;;;;;;5084831;28;20012;-71
2021/12/22 04:27:50;;;;;;;;;;;;;;;;;;5082432;28;19973;-71
2021/12/22 04:30:19;;;;;;;;;;;;;;;;;;5083725;28;19932;-71
2021/12/22 04:32:50;;;;;;;;;;;;;;;;;;5078055;28;19924;-71
2021/12/22 04:35:19;;;;;;;;;;;;;;;;;;5070208;28;19953;-71
2021/12/22 04:37:49;;;;;;;;;;;;;;;;;;5080639;28;19939;-71
2021/12/22 04:40:19;;;;;;;;;;;;;;;;;;5083530;28;19924;-71
2021/12/22 04:42:49;;;;;;;;;;;;;;;;;;5086384;28;19958;-71
2021/12/22 04:45:20;;;;;;;;;;;;;;;;;;5088461;28;19928;-71
2021/12/22 04:47:53;;;;;;;;;;;;;;;;;;5081119;28;19935;-71
2021/12/22 04:50:24;;;;;;;;;;;;;;;;;;5083165;28;19932;-70
2021/12/22 04:52:58;;;;;;;;;;;;;;;;;;5086603;28;19923;-71
2021/12/22 04:55:27;;;;;;;;;;;;;;;;;;5084772;28;19935;-71
2021/12/22 04:57:57;;;;;;;;;;;;;;;;;;5081718;28;19935;-70
2021/12/22 05:00:26;;;;;;;;;;;;;;;;;;5081694;28;20549;-71
2021/12/22 05:02:58;;;;;;;;;;;;;;;;;;5070255;28;19924;-71
2021/12/22 05:05:29;;;;;;;;;;;;;;;;;;5065749;28;19928;-71
2021/12/22 05:07:59;;;;;;;;;;;;;;;;;;5083160;28;19924;-70
2021/12/22 05:10:31;;;;;;;;;;;;;;;;;;5085125;28;19928;-71
2021/12/22 05:13:02;;;;;;;;;;;;;;;;;;5088239;28;20272;-70
2021/12/22 05:15:38;;;;;;;;;;;;;;;;;;5087403;28;19967;-71
2021/12/22 05:18:47;;;;;;;;;;;;;;;;;;5089515;28;19923;-71
2021/12/22 05:21:21;;;;;;;;;;;;;;;;;;5085130;28;20274;-71
2021/12/22 05:23:48;;;;;;;;;;;;;;;;;;5086879;28;19924;-71
2021/12/22 05:26:21;;;;;;;;;;;;;;;;;;5088318;28;19924;-71
2021/12/22 05:28:51;;;;;;;;;;;;;;;;;;5085245;28;20424;-71
2021/12/22 05:31:20;;;;;;;;;;;;;;;;;;5089555;28;19928;-71
2021/12/22 05:33:50;;;;;;;;;;;;;;;;;;5081656;28;20346;-71
2021/12/22 05:36:18;;;;;;;;;;;;;;;;;;5087659;28;19947;-71
2021/12/22 05:38:49;;;;;;;;;;;;;;;;;;5087536;28;19924;-71
2021/12/22 05:41:18;;;;;;;;;;;;;;;;;;5084137;28;19935;-71
2021/12/22 05:43:48;;;;;;;;;;;;;;;;;;5089913;28;19940;-71
2021/12/22 05:46:17;;;;;;;;;;;;;;;;;;5083101;28;20321;-71
2021/12/22 05:48:48;;;;;;;;;;;;;;;;;;5085829;28;19942;-70
2021/12/22 05:51:18;;;;;;;;;;;;;;;;;;5064561;28;19966;-71
2021/12/22 05:53:47;;;;;;;;;;;;;;;;;;5081176;28;19925;-71
2021/12/22 05:56:16;;;;;;;;;;;;;;;;;;5074959;28;20042;-71
2021/12/22 05:58:47;;;;;;;;;;;;;;;;;;5086002;28;19931;-71
2021/12/22 06:01:17;;;;;;;;;;;;;;;;;;5086463;28;20002;-71
2021/12/22 06:03:47;;;;;;;;;;;;;;;;;;5087821;28;19924;-71
2021/12/22 06:06:15;;;;;;;;;;;;;;;;;;5092968;28;19935;-71
2021/12/22 06:08:44;;;;;;;;;;;;;;;;;;5083730;28;20378;-70
2021/12/22 06:11:14;;;;;;;;;;;;;;;;;;5083998;28;19924;-71
2021/12/22 06:13:46;;;;;;;;;;;;;;;;;;5068239;28;19977;-71
2021/12/22 06:16:17;;;;;;;;;;;;;;;;;;5076569;28;19924;-71
2021/12/22 06:18:51;;;;;;;;;;;;;;;;;;5081239;28;19932;-71
2021/12/22 06:21:23;;;;;;;;;;;;;;;;;;5080859;28;20243;-70
2021/12/22 06:23:53;;;;;;;;;;;;;;;;;;5082199;28;19928;-72
2021/12/22 06:26:25;;;;;;;;;;;;;;;;;;5084968;28;19935;-71
2021/12/22 06:28:58;;;;;;;;;;;;;;;;;;5087146;28;19924;-71
2021/12/22 06:31:31;;;;;;;;;;;;;;;;;;5071153;28;19928;-71
2021/12/22 06:34:01;;;;;;;;;;;;;;;;;;5080943;28;19935;-70
2021/12/22 06:36:30;;;;;;;;;;;;;;;;;;5087748;28;19924;-71
2021/12/22 06:38:58;;;;;;;;;;;;;;;;;;5077404;28;20244;-70
2021/12/22 06:41:29;;;;;;;;;;;;;;;;;;5085119;28;20280;-70
2021/12/22 06:43:58;;;;;;;;;;;;;;;;;;5079765;28;20415;-70
2021/12/22 06:46:29;;;;;;;;;;;;;;;;;;5085251;28;20011;-70
2021/12/22 06:49:02;;;;;;;;;;;;;;;;;;5081262;28;20292;-71
2021/12/22 06:51:33;;;;;;;;;;;;;;;;;;5083025;28;20700;-70
2021/12/22 06:54:04;;;;;;;;;;;;;;;;;;5085302;28;19932;-70
2021/12/22 06:56:34;;;;;;;;;;;;;;;;;;5073039;28;19924;-70
2021/12/22 06:59:02;;;;;;;;;;;;;;;;;;5085287;28;20426;-70
2021/12/22 07:01:33;;;;;;;;;;;;;;;;;;5079181;28;19932;-70
2021/12/22 07:04:07;;;;;;;;;;;;;;;;;;5073163;28;19963;-70
2021/12/22 07:06:38;;;;;;;;;;;;;;;;;;5087281;28;19924;-71
2021/12/22 07:09:09;;;;;;;;;;;;;;;;;;5086147;28;19957;-72
2021/12/22 07:11:42;;;;;;;;;;;;;;;;;;5086763;28;19924;-73
2021/12/22 07:14:13;;;;;;;;;;;;;;;;;;5075587;28;19932;-72
2021/12/22 07:16:45;;;;;;;;;;;;;;;;;;5087418;28;19924;-72
2021/12/22 07:19:20;;;;;;;;;;;;;;;;;;5069749;28;19928;-73
2021/12/22 07:21:54;;;;;;;;;;;;;;;;;;5066072;28;20449;-72
2021/12/22 07:24:25;;;;;;;;;;;;;;;;;;5069144;28;19924;-72
2021/12/22 07:26:56;;;;;;;;;;;;;;;;;;5086744;28;19924;-73
2021/12/22 07:29:25;;;;;;;;;;;;;;;;;;5087414;28;19925;-73
2021/12/22 07:31:57;;;;;;;;;;;;;;;;;;5083742;28;19924;-71
2021/12/22 07:34:27;;;;;;;;;;;;;;;;;;5084053;28;20463;-71
2021/12/22 07:36:55;;;;;;;;;;;;;;;;;;5079681;28;19939;-72
2021/12/22 07:39:24;;;;;;;;;;;;;;;;;;5067983;28;19932;-72
2021/12/22 07:41:54;;;;;;;;;;;;;;;;;;5085177;28;19935;-71
2021/12/22 07:44:22;;;;;;;;;;;;;;;;;;5085121;28;19924;-72
2021/12/22 07:46:52;;;;;;;;;;;;;;;;;;5072691;28;19954;-72
2021/12/22 07:49:23;;;;;;;;;;;;;;;;;;5077130;28;19932;-73
2021/12/22 07:51:51;;;;;;;;;;;;;;;;;;5084496;28;19939;-73
2021/12/22 07:54:26;;;;;;;;;;;;;;;;;;5065003;28;20019;-71
2021/12/22 07:57:05;;;;;;;;;;;;;;;;;;5076768;28;19924;-70
2021/12/22 07:59:40;;;;;;;;;;;;;;;;;;5068813;28;19932;-72
2021/12/22 08:02:09;;;;;;;;;;;;;;;;;;5069401;28;19924;-69
2021/12/22 08:04:40;;;;;;;;;;;;;;;;;;5085659;28;19935;-70
2021/12/22 08:07:12;;;;;;;;;;;;;;;;;;5052433;28;19932;-71
2021/12/22 08:09:54;;;;;;;;;;;;;;;;;;5063056;28;20035;-69
2021/12/22 08:12:35;;;;;;;;;;;;;;;;;;5063162;28;20373;-71
2021/12/22 08:15:04;;;;;;;;;;;;;;;;;;5062210;28;19939;-70
2021/12/22 08:17:34;;;;;;;;;;;;;;;;;;5066952;28;19925;-70
2021/12/22 08:20:05;;;;;;;;;;;;;;;;;;5056658;28;19999;-70
2021/12/22 08:22:38;;;;;;;;;;;;;;;;;;5065355;28;20009;-70
2021/12/22 08:25:13;;;;;;;;;;;;;;;;;;5063779;28;20339;-71
2021/12/22 08:27:42;;;;;;;;;;;;;;;;;;5063557;28;19924;-69
2021/12/22 08:30:10;;;;;;;;;;;;;;;;;;5061014;28;19942;-72
2021/12/22 08:32:41;;;;;;;;;;;;;;;;;;5059815;28;20031;-72
2021/12/22 08:35:16;;;;;;;;;;;;;;;;;;5055530;28;20031;-70
2021/12/22 08:40:38;;;;;;;;;;;;;;;;;;5065385;28;19928;-70
2021/12/22 08:43:06;;;;;;;;;;;;;;;;;;5063711;28;20553;-72
2021/12/22 08:45:37;;;;;;;;;;;;;;;;;;5067625;28;19942;-71
2021/12/22 08:48:07;;;;;;;;;;;;;;;;;;5061243;28;19936;-70
2021/12/22 08:50:37;;;;;;;;;;;;;;;;;;5067372;28;19932;-71
2021/12/22 08:53:05;;;;;;;;;;;;;;;;;;5066553;28;19932;-71
2021/12/22 08:55:38;;;;;;;;;;;;;;;;;;5070421;28;19936;-69
2021/12/22 08:58:06;;;;;;;;;;;;;;;;;;5063979;28;19924;-70
2021/12/22 09:00:38;;;;;;;;;;;;;;;;;;5064382;28;19947;-70
2021/12/22 09:03:10;;;;;;;;;;;;;;;;;;5066240;28;20670;-71
2021/12/22 09:05:39;;;;;;;;;;;;;;;;;;5073414;28;19932;-69
2021/12/22 09:08:12;;;;;;;;;;;;;;;;;;5079378;28;19931;-70
2021/12/22 09:10:43;;;;;;;;;;;;;;;;;;5084551;28;20359;-72
2021/12/22 09:13:15;;;;;;;;;;;;;;;;;;5066206;28;19924;-73
2021/12/22 09:15:46;;;;;;;;;;;;;;;;;;5086185;28;20457;-71
2021/12/22 09:18:15;;;;;;;;;;;;;;;;;;5087584;28;19924;-69
2021/12/22 09:20:46;;;;;;;;;;;;;;;;;;5080729;28;20570;-70
2021/12/22 09:23:13;;;;;;;;;;;;;;;;;;5076263;28;19928;-70
2021/12/22 09:25:42;;;;;;;;;;;;;;;;;;5087551;28;19940;-71
2021/12/22 09:28:12;;;;;;;;;;;;;;;;;;5084272;28;19924;-71
2021/12/22 09:30:40;;;;;;;;;;;;;;;;;;5087166;28;20369;-70
2021/12/22 09:33:08;;;;;;;;;;;;;;;;;;5087182;28;19924;-71
2021/12/22 09:35:36;;;;;;;;;;;;;;;;;;5086149;28;20509;-71
2021/12/22 09:38:07;;;;;;;;;;;;;;;;;;5084951;28;19938;-71
2021/12/22 09:40:35;;;;;;;;;;;;;;;;;;5085319;28;19932;-71
2021/12/22 09:43:03;;;;;;;;;;;;;;;;;;5088832;28;20141;-72
2021/12/22 09:45:34;;;;;;;;;;;;;;;;;;5083804;28;20019;-72
2021/12/22 09:50:52;;;;;;;;;;;;;;;;;;5088356;28;19969;-72
2021/12/22 09:53:23;;;;;;;;;;;;;;;;;;5086259;28;19923;-72
2021/12/22 09:56:03;;;;;;;;;;;;;;;;;;5078175;28;19928;-72
2021/12/22 09:58:38;;;;;;;;;;;;;;;;;;5080208;28;20011;-72
2021/12/22 10:01:09;;;;;;;;;;;;;;;;;;5085494;28;19934;-73
2021/12/22 10:03:41;;;;;;;;;;;;;;;;;;5085851;28;19928;-72
2021/12/22 10:06:09;;;;;;;;;;;;;;;;;;5083771;28;19928;-71
2021/12/22 10:08:40;;;;;;;;;;;;;;;;;;5079641;28;19934;-69
2021/12/22 10:11:10;;;;;;;;;;;;;;;;;;5084879;28;19928;-71
2021/12/22 10:13:44;;;;;;;;;;;;;;;;;;5070709;28;20444;-70
2021/12/22 10:16:24;;;;;;;;;;;;;;;;;;5084665;28;19935;-70
2021/12/22 10:18:57;;;;;;;;;;;;;;;;;;5086926;28;19924;-69
2021/12/22 10:21:28;;;;;;;;;;;;;;;;;;5086372;28;19938;-69
2021/12/22 10:23:58;;;;;;;;;;;;;;;;;;5084559;28;19934;-71
2021/12/22 10:26:32;;;;;;;;;;;;;;;;;;5079487;28;19924;-71
2021/12/22 10:29:22;;;;;;;;;;;;;;;;;;5085573;28;19957;-72
2021/12/22 10:31:53;;;;;;;;;;;;;;;;;;5089897;28;19939;-70
2021/12/22 10:34:24;;;;;;;;;;;;;;;;;;5086955;28;19938;-71
2021/12/22 10:36:55;;;;;;;;;;;;;;;;;;5083317;28;19932;-71
2021/12/22 10:39:37;;;;;;;;;;;;;;;;;;5068371;28;20022;-71
2021/12/22 10:42:08;;;;;;;;;;;;;;;;;;5086850;28;19934;-72
2021/12/22 10:44:37;;;;;;;;;;;;;;;;;;5083425;28;19924;-71
2021/12/22 10:47:08;;;;;;;;;;;;;;;;;;5083189;28;19965;-72
2021/12/22 10:49:37;;;;;;;;;;;;;;;;;;5074222;28;19933;-71
2021/12/22 10:52:09;;;;;;;;;;;;;;;;;;5080894;28;19930;-71
2021/12/22 10:54:39;;;;;;;;;;;;;;;;;;5083068;28;20030;-71
2021/12/22 10:57:06;;;;;;;;;;;;;;;;;;5080310;28;19924;-72
2021/12/22 10:59:35;;;;;;;;;;;;;;;;;;5083022;28;19939;-72
2021/12/22 11:02:18;;;;;;;;;;;;;;;;;;5080360;28;19967;-72
2021/12/22 11:04:50;;;;;;;;;;;;;;;;;;5079115;28;19978;-69
2021/12/22 11:07:27;;;;;;;;;;;;;;;;;;5084751;28;19924;-68
2021/12/22 11:09:57;;;;;;;;;;;;;;;;;;5080594;28;19924;-68
2021/12/22 11:12:26;;;;;;;;;;;;;;;;;;5082998;28;19928;-70
2021/12/22 11:14:55;;;;;;;;;;;;;;;;;;5066243;28;19924;-70
2021/12/22 11:17:23;;;;;;;;;;;;;;;;;;5085499;28;19924;-68
2021/12/22 11:19:52;;;;;;;;;;;;;;;;;;5081653;28;19943;-68
2021/12/22 11:22:36;;;;;;;;;;;;;;;;;;5081140;28;19932;-68
2021/12/22 11:25:12;;;;;;;;;;;;;;;;;;5086314;28;20413;-68
2021/12/22 11:27:43;;;;;;;;;;;;;;;;;;5084342;28;20389;-69
2021/12/22 11:30:17;;;;;;;;;;;;;;;;;;5083395;28;19935;-68
2021/12/22 11:32:50;;;;;;;;;;;;;;;;;;5081924;28;19924;-67
2021/12/22 11:35:20;;;;;;;;;;;;;;;;;;5080885;28;19924;-67
2021/12/22 11:37:49;;;;;;;;;;;;;;;;;;5082907;28;20020;-67
2021/12/22 11:40:18;;;;;;;;;;;;;;;;;;5080396;28;19960;-67
2021/12/22 11:42:55;;;;;;;;;;;;;;;;;;5082033;28;19928;-67
2021/12/22 11:45:26;;;;;;;;;;;;;;;;;;5083122;28;20014;-69
2021/12/22 11:47:58;;;;;;;;;;;;;;;;;;5082206;28;19927;-69
2021/12/22 11:50:27;;;;;;;;;;;;;;;;;;5080724;28;19929;-69
2021/12/22 11:52:54;;;;;;;;;;;;;;;;;;5086255;28;19939;-69
2021/12/22 11:55:24;;;;;;;;;;;;;;;;;;5085960;28;19967;-69
2021/12/22 11:57:56;;;;;;;;;;;;;;;;;;5072435;28;19954;-69
2021/12/22 12:00:25;;;;;;;;;;;;;;;;;;5087327;28;19928;-69
2021/12/22 12:02:55;;;;;;;;;;;;;;;;;;5080377;28;19943;-69
2021/12/22 12:05:27;;;;;;;;;;;;;;;;;;5080456;28;19973;-69
2021/12/22 12:08:07;;;;;;;;;;;;;;;;;;5073028;28;19935;-70
2021/12/22 12:10:40;;;;;;;;;;;;;;;;;;5080982;28;19924;-70
2021/12/22 12:13:22;;;;;;;;;;;;;;;;;;5062071;28;19932;-70
2021/12/22 12:16:01;;;;;;;;;;;;;;;;;;5080302;28;19924;-69
2021/12/22 12:21:48;;;;;;;;;;;;;;;;;;5020174;28;19925;-69
2021/12/22 12:24:21;;;;;;;;;;;;;;;;;;5015275;28;19926;-69
2021/12/22 12:26:50;;;;;;;;;;;;;;;;;;5026540;28;19983;-69
2021/12/22 12:29:18;;;;;;;;;;;;;;;;;;5020695;28;19933;-69
2021/12/22 12:31:51;;;;;;;;;;;;;;;;;;5017617;28;20401;-68
2021/12/22 12:34:19;;;;;;;;;;;;;;;;;;5017447;28;19925;-67
2021/12/22 12:36:50;;;;;;;;;;;;;;;;;;5062180;28;19933;-67
2021/12/22 12:39:19;;;;;;;;;;;;;;;;;;5084915;28;19936;-67
2021/12/22 12:41:48;;;;;;;;;;;;;;;;;;5087199;28;19925;-70
2021/12/22 12:44:19;;;;;;;;;;;;;;;;;;5077914;28;19928;-70
2021/12/22 12:46:50;;;;;;;;;;;;;;;;;;5079752;28;19925;-69
2021/12/22 12:49:21;;;;;;;;;;;;;;;;;;5083191;28;19924;-69
2021/12/22 12:51:52;;;;;;;;;;;;;;;;;;5080099;28;19935;-69
2021/12/22 12:54:25;;;;;;;;;;;;;;;;;;5079589;28;19981;-69
2021/12/22 12:56:54;;;;;;;;;;;;;;;;;;5082911;28;19931;-69
2021/12/22 12:59:29;;;;;;;;;;;;;;;;;;5081536;28;19924;-70
2021/12/22 13:02:00;;;;;;;;;;;;;;;;;;5075477;28;20311;-70
2021/12/22 13:04:29;;;;;;;;;;;;;;;;;;5083033;28;19962;-70
2021/12/22 13:07:00;;;;;;;;;;;;;;;;;;5080509;28;19935;-67
2021/12/22 13:09:30;;;;;;;;;;;;;;;;;;5079973;28;20060;-67
2021/12/22 13:12:16;;;;;;;;;;;;;;;;;;5081898;28;20396;-68
2021/12/22 13:17:31;;;;;;;;;;;;;;;;;;5084916;28;19932;-68
2021/12/22 13:20:02;;;;;;;;;;;;;;;;;;5078245;28;19924;-68
2021/12/22 13:22:38;;;;;;;;;;;;;;;;;;5080712;28;19924;-68
2021/12/22 13:25:08;;;;;;;;;;;;;;;;;;5078624;28;19931;-69
2021/12/22 13:27:36;;;;;;;;;;;;;;;;;;5090235;28;19943;-70
2021/12/22 13:30:17;;;;;;;;;;;;;;;;;;5084687;28;19932;-67
2021/12/22 13:32:48;;;;;;;;;;;;;;;;;;5084860;28;20506;-67
2021/12/22 13:35:18;;;;;;;;;;;;;;;;;;5079990;28;19924;-67
2021/12/22 13:37:45;;;;;;;;;;;;;;;;;;5087751;28;19939;-66
2021/12/22 13:40:15;;;;;;;;;;;;;;;;;;5076959;28;19924;-67
2021/12/22 13:42:46;;;;;;;;;;;;;;;;;;5087694;28;19984;-67
2021/12/22 13:45:14;;;;;;;;;;;;;;;;;;5086090;28;19924;-67
2021/12/22 13:47:45;;;;;;;;;;;;;;;;;;5082586;28;20547;-67
2021/12/22 13:50:19;;;;;;;;;;;;;;;;;;5084572;28;20011;-69
2021/12/22 13:52:49;;;;;;;;;;;;;;;;;;5075493;28;19925;-70
2021/12/22 13:55:18;;;;;;;;;;;;;;;;;;5084142;28;19924;-69
2021/12/22 13:57:50;;;;;;;;;;;;;;;;;;5076115;28;19924;-69
2021/12/22 14:00:19;;;;;;;;;;;;;;;;;;5082200;28;20117;-69
2021/12/22 14:02:49;;;;;;;;;;;;;;;;;;5086563;28;19932;-70
2021/12/22 14:05:21;;;;;;;;;;;;;;;;;;5086930;28;19924;-70
2021/12/22 14:07:52;;;;;;;;;;;;;;;;;;5070625;28;19932;-70
2021/12/22 14:10:22;;;;;;;;;;;;;;;;;;5066500;28;20289;-68
2021/12/22 14:12:55;;;;;;;;;;;;;;;;;;5066791;28;20590;-68
2021/12/22 14:15:25;;;;;;;;;;;;;;;;;;5063652;28;20515;-68
2021/12/22 14:17:53;;;;;;;;;;;;;;;;;;5066967;28;19924;-68
2021/12/22 14:20:24;;;;;;;;;;;;;;;;;;5048298;28;19946;-69
2021/12/22 14:22:53;;;;;;;;;;;;;;;;;;5062315;28;19966;-69
2021/12/22 14:25:23;;;;;;;;;;;;;;;;;;5063297;28;19925;-67
2021/12/22 14:27:55;;;;;;;;;;;;;;;;;;5059945;28;19928;-67
2021/12/22 14:30:25;;;;;;;;;;;;;;;;;;5056568;28;19936;-69
2021/12/22 14:32:55;;;;;;;;;;;;;;;;;;5062572;28;19929;-69
2021/12/22 14:35:23;;;;;;;;;;;;;;;;;;5056766;28;19928;-67
2021/12/22 14:37:54;;;;;;;;;;;;;;;;;;5035957;28;19933;-66
2021/12/22 14:40:25;;;;;;;;;;;;;;;;;;5056245;28;19960;-68
2021/12/22 14:42:58;;;;;;;;;;;;;;;;;;5058055;28;20347;-68
2021/12/22 14:45:33;;;;;;;;;;;;;;;;;;5057338;28;19928;-66
2021/12/22 14:48:04;;;;;;;;;;;;;;;;;;5055812;28;19932;-66
2021/12/22 14:50:35;;;;;;;;;;;;;;;;;;5047641;28;19925;-66
2021/12/22 14:53:05;;;;;;;;;;;;;;;;;;5058288;28;19933;-66
2021/12/22 14:55:35;;;;;;;;;;;;;;;;;;5056132;28;19928;-66
2021/12/22 14:58:05;;;;;;;;;;;;;;;;;;5053383;28;19937;-66
2021/12/22 15:00:35;;;;;;;;;;;;;;;;;;5052790;28;19999;-68
2021/12/22 15:03:05;;;;;;;;;;;;;;;;;;5058319;28;19989;-69
2021/12/22 15:05:36;;;;;;;;;;;;;;;;;;5056140;28;19936;-68
2021/12/22 15:08:07;;;;;;;;;;;;;;;;;;5054392;28;19947;-68
2021/12/22 15:10:43;;;;;;;;;;;;;;;;;;5055240;28;19924;-67
2021/12/22 15:13:12;;;;;;;;;;;;;;;;;;5052301;28;19936;-67
2021/12/22 15:15:45;;;;;;;;;;;;;;;;;;5056819;28;19932;-68
2021/12/22 15:18:14;;;;;;;;;;;;;;;;;;5050956;28;19971;-68
2021/12/22 15:20:43;;;;;;;;;;;;;;;;;;5053007;28;19929;-66
2021/12/22 15:23:15;;;;;;;;;;;;;;;;;;5058173;28;19943;-66
2021/12/22 15:25:45;;;;;;;;;;;;;;;;;;5059599;28;19924;-67
2021/12/22 15:28:13;;;;;;;;;;;;;;;;;;5055138;28;20443;-68
2021/12/22 15:30:42;;;;;;;;;;;;;;;;;;5062591;28;19946;-68
2021/12/22 15:33:34;;;;;;;;;;;;;;;;;;5051140;28;19933;-68
2021/12/22 15:36:06;;;;;;;;;;;;;;;;;;5066785;28;20337;-67
2021/12/22 15:38:35;;;;;;;;;;;;;;;;;;5053851;28;19928;-68
2021/12/22 15:41:02;;;;;;;;;;;;;;;;;;5067814;28;20001;-67
2021/12/22 15:43:35;;;;;;;;;;;;;;;;;;5040743;28;19928;-69
2021/12/22 15:46:03;;;;;;;;;;;;;;;;;;5055158;28;19924;-69
2021/12/22 15:48:33;;;;;;;;;;;;;;;;;;5053350;28;19928;-69
2021/12/22 15:51:13;;;;;;;;;;;;;;;;;;5057927;28;19928;-69
2021/12/22 15:53:43;;;;;;;;;;;;;;;;;;5055937;28;19928;-69
2021/12/22 15:56:13;;;;;;;;;;;;;;;;;;5055283;28;19939;-68
2021/12/22 15:58:41;;;;;;;;;;;;;;;;;;5056199;28;19925;-69
2021/12/22 16:01:08;;;;;;;;;;;;;;;;;;5056442;28;19985;-70
2021/12/22 16:03:38;;;;;;;;;;;;;;;;;;5057225;28;19932;-70
2021/12/22 16:06:08;;;;;;;;;;;;;;;;;;5057791;28;19932;-70
2021/12/22 16:08:37;;;;;;;;;;;;;;;;;;5073678;28;19935;-70
2021/12/22 16:11:06;;;;;;;;;;;;;;;;;;5072511;28;19924;-70
2021/12/22 16:13:41;;;;;;;;;;;;;;;;;;5054480;28;20369;-69
2021/12/22 16:16:14;;;;;;;;;;;;;;;;;;5051673;28;19925;-69
2021/12/22 16:18:45;;;;;;;;;;;;;;;;;;5054453;28;19939;-69
2021/12/22 16:21:16;;;;;;;;;;;;;;;;;;5054109;28;19928;-69
2021/12/22 16:23:51;;;;;;;;;;;;;;;;;;5074965;28;20323;-69
2021/12/22 16:26:26;;;;;;;;;;;;;;;;;;5070488;28;20254;-69
2021/12/22 16:29:00;;;;;;;;;;;;;;;;;;5072357;28;19932;-69
2021/12/22 16:31:33;;;;;;;;;;;;;;;;;;5072146;28;19928;-69
2021/12/22 16:34:11;;;;;;;;;;;;;;;;;;5070356;28;19928;-70
2021/12/22 16:36:41;;;;;;;;;;;;;;;;;;5068368;28;19927;-70
2021/12/22 16:39:23;;;;;;;;;;;;;;;;;;5072450;28;19925;-70
2021/12/22 16:41:50;;;;;;;;;;;;;;;;;;5070019;28;19958;-70
2021/12/22 16:44:25;;;;;;;;;;;;;;;;;;5071589;28;20581;-70
2021/12/22 16:46:54;;;;;;;;;;;;;;;;;;5071598;28;19932;-70
2021/12/22 16:49:23;;;;;;;;;;;;;;;;;;5071611;28;20350;-70
2021/12/22 16:51:50;;;;;;;;;;;;;;;;;;5071403;28;19969;-70
2021/12/22 16:54:17;;;;;;;;;;;;;;;;;;5071520;28;19936;-69
2021/12/22 16:56:46;;;;;;;;;;;;;;;;;;5068824;28;20520;-70
2021/12/22 16:59:20;;;;;;;;;;;;;;;;;;5074469;28;19932;-71
2021/12/22 17:01:54;;;;;;;;;;;;;;;;;;5070551;28;19928;-71
2021/12/22 17:04:24;;;;;;;;;;;;;;;;;;5079723;28;19928;-70
2021/12/22 17:06:55;;;;;;;;;;;;;;;;;;5070374;28;19940;-70
2021/12/22 17:09:25;;;;;;;;;;;;;;;;;;5080636;28;19928;-70
2021/12/22 17:11:59;;;;;;;;;;;;;;;;;;5074315;28;20576;-70
2021/12/22 17:14:31;;;;;;;;;;;;;;;;;;5076667;28;19937;-70
2021/12/22 17:17:12;;;;;;;;;;;;;;;;;;5079521;28;19936;-69
2021/12/22 17:19:42;;;;;;;;;;;;;;;;;;5076743;28;20360;-70
2021/12/22 17:22:11;;;;;;;;;;;;;;;;;;5072046;28;20293;-70
2021/12/22 17:24:43;;;;;;;;;;;;;;;;;;5078100;28;20469;-70
2021/12/22 17:27:12;;;;;;;;;;;;;;;;;;5077619;28;19931;-71
2021/12/22 17:29:42;;;;;;;;;;;;;;;;;;5083589;28;19934;-71
2021/12/22 17:32:09;;;;;;;;;;;;;;;;;;5072532;28;19932;-70
2021/12/22 17:34:40;;;;;;;;;;;;;;;;;;5058346;28;19974;-70